sensor_id;sensor_type;location;lat;lon;timestamp;temperature;humidity
49184;DHT22;35021;49.214;12.270;2022-08-01T00:00:08;22.80;57.00
49184;DHT22;35021;49.214;12.270;2022-08-01T00:02:36;22.80;57.00
49184;DHT22;35021;49.214;12.270;2022-08-01T00:05:06;22.80;57.00
49184;DHT22;35021;49.214;12.270;2022-08-01T00:07:34;22.80;57.10
49184;DHT22;35021;49.214;12.270;2022-08-01T00:10:03;22.70;57.00
49184;DHT22;35021;49.214;12.270;2022-08-01T00:12:30;22.70;57.20
49184;DHT22;35021;49.214;12.270;2022-08-01T00:14:57;22.70;57.20
49184;DHT22;35021;49.214;12.270;2022-08-01T00:17:24;22.70;57.30
49184;DHT22;35021;49.214;12.270;2022-08-01T00:19:51;22.70;57.30
49184;DHT22;35021;49.214;12.270;2022-08-01T00:22:17;22.60;57.40
49184;DHT22;35021;49.214;12.270;2022-08-01T00:24:44;22.60;57.40
49184;DHT22;35021;49.214;12.270;2022-08-01T00:27:11;22.60;57.40
49184;DHT22;35021;49.214;12.270;2022-08-01T00:29:38;22.60;57.40
49184;DHT22;35021;49.214;12.270;2022-08-01T00:32:25;22.60;57.40
49184;DHT22;35021;49.214;12.270;2022-08-01T00:34:51;22.60;57.40
49184;DHT22;35021;49.214;12.270;2022-08-01T00:37:18;22.60;58.10
49184;DHT22;35021;49.214;12.270;2022-08-01T00:39:45;22.60;57.40
49184;DHT22;35021;49.214;12.270;2022-08-01T00:42:12;22.60;57.40
49184;DHT22;35021;49.214;12.270;2022-08-01T00:44:40;22.60;57.30
49184;DHT22;35021;49.214;12.270;2022-08-01T00:47:07;22.60;57.40
49184;DHT22;35021;49.214;12.270;2022-08-01T00:49:34;22.60;57.30
49184;DHT22;35021;49.214;12.270;2022-08-01T00:52:03;22.60;57.30
49184;DHT22;35021;49.214;12.270;2022-08-01T00:54:32;22.60;57.30
49184;DHT22;35021;49.214;12.270;2022-08-01T00:56:59;22.60;57.30
49184;DHT22;35021;49.214;12.270;2022-08-01T00:59:26;22.60;57.30
49184;DHT22;35021;49.214;12.270;2022-08-01T01:01:54;22.60;57.30
49184;DHT22;35021;49.214;12.270;2022-08-01T01:04:22;22.60;57.20
49184;DHT22;35021;49.214;12.270;2022-08-01T01:07:14;22.60;57.20
49184;DHT22;35021;49.214;12.270;2022-08-01T01:10:02;22.60;57.20
49184;DHT22;35021;49.214;12.270;2022-08-01T01:12:44;22.60;57.20
49184;DHT22;35021;49.214;12.270;2022-08-01T01:18:17;22.60;57.10
49184;DHT22;35021;49.214;12.270;2022-08-01T01:20:47;22.60;57.00
49184;DHT22;35021;49.214;12.270;2022-08-01T01:29:43;22.60;57.00
49184;DHT22;35021;49.214;12.270;2022-08-01T01:32:44;22.60;57.00
49184;DHT22;35021;49.214;12.270;2022-08-01T01:35:20;22.60;57.10
49184;DHT22;35021;49.214;12.270;2022-08-01T01:37:51;22.60;57.10
49184;DHT22;35021;49.214;12.270;2022-08-01T01:40:20;22.60;57.10
49184;DHT22;35021;49.214;12.270;2022-08-01T01:42:49;22.60;57.10
49184;DHT22;35021;49.214;12.270;2022-08-01T01:45:18;22.60;57.00
49184;DHT22;35021;49.214;12.270;2022-08-01T01:47:46;22.60;57.00
49184;DHT22;35021;49.214;12.270;2022-08-01T01:50:14;22.60;57.00
49184;DHT22;35021;49.214;12.270;2022-08-01T01:52:42;22.60;57.00
49184;DHT22;35021;49.214;12.270;2022-08-01T01:55:11;22.60;56.90
49184;DHT22;35021;49.214;12.270;2022-08-01T01:57:41;22.60;57.00
49184;DHT22;35021;49.214;12.270;2022-08-01T02:00:10;22.60;56.90
49184;DHT22;35021;49.214;12.270;2022-08-01T02:02:38;22.60;56.90
49184;DHT22;35021;49.214;12.270;2022-08-01T02:05:08;22.60;56.90
49184;DHT22;35021;49.214;12.270;2022-08-01T02:07:37;22.60;57.00
49184;DHT22;35021;49.214;12.270;2022-08-01T02:10:06;22.60;57.00
49184;DHT22;35021;49.214;12.270;2022-08-01T02:12:36;22.60;57.10
49184;DHT22;35021;49.214;12.270;2022-08-01T02:15:05;22.60;57.10
49184;DHT22;35021;49.214;12.270;2022-08-01T02:17:37;22.60;57.20
49184;DHT22;35021;49.214;12.270;2022-08-01T02:20:06;22.60;57.20
49184;DHT22;35021;49.214;12.270;2022-08-01T02:22:58;22.50;57.10
49184;DHT22;35021;49.214;12.270;2022-08-01T02:25:31;22.50;57.20
49184;DHT22;35021;49.214;12.270;2022-08-01T02:28:04;22.50;57.10
49184;DHT22;35021;49.214;12.270;2022-08-01T02:30:37;22.50;57.10
49184;DHT22;35021;49.214;12.270;2022-08-01T02:35:43;22.50;57.10
49184;DHT22;35021;49.214;12.270;2022-08-01T02:38:35;22.50;57.10
49184;DHT22;35021;49.214;12.270;2022-08-01T02:41:08;22.50;57.10
49184;DHT22;35021;49.214;12.270;2022-08-01T02:43:43;22.50;57.10
49184;DHT22;35021;49.214;12.270;2022-08-01T02:46:24;22.50;57.10
49184;DHT22;35021;49.214;12.270;2022-08-01T02:48:53;22.50;57.10
49184;DHT22;35021;49.214;12.270;2022-08-01T02:51:23;22.50;57.10
49184;DHT22;35021;49.214;12.270;2022-08-01T02:53:53;22.50;57.10
49184;DHT22;35021;49.214;12.270;2022-08-01T02:56:21;22.50;57.10
49184;DHT22;35021;49.214;12.270;2022-08-01T02:58:50;22.50;57.10
49184;DHT22;35021;49.214;12.270;2022-08-01T03:01:19;22.50;57.10
49184;DHT22;35021;49.214;12.270;2022-08-01T03:03:47;22.50;57.10
49184;DHT22;35021;49.214;12.270;2022-08-01T03:06:15;22.50;57.10
49184;DHT22;35021;49.214;12.270;2022-08-01T03:08:44;22.50;57.10
49184;DHT22;35021;49.214;12.270;2022-08-01T03:11:12;22.50;57.10
49184;DHT22;35021;49.214;12.270;2022-08-01T03:13:41;22.50;57.10
49184;DHT22;35021;49.214;12.270;2022-08-01T03:16:09;22.50;57.10
49184;DHT22;35021;49.214;12.270;2022-08-01T03:18:38;22.50;57.10
49184;DHT22;35021;49.214;12.270;2022-08-01T03:21:06;22.50;57.10
49184;DHT22;35021;49.214;12.270;2022-08-01T03:23:36;22.50;57.10
49184;DHT22;35021;49.214;12.270;2022-08-01T03:26:05;22.50;57.10
49184;DHT22;35021;49.214;12.270;2022-08-01T03:28:32;22.50;57.20
49184;DHT22;35021;49.214;12.270;2022-08-01T03:30:59;22.50;57.20
49184;DHT22;35021;49.214;12.270;2022-08-01T03:33:26;22.50;57.30
49184;DHT22;35021;49.214;12.270;2022-08-01T03:35:54;22.50;57.40
49184;DHT22;35021;49.214;12.270;2022-08-01T03:38:23;22.40;57.40
49184;DHT22;35021;49.214;12.270;2022-08-01T03:41:25;22.40;57.40
49184;DHT22;35021;49.214;12.270;2022-08-01T03:43:58;22.30;58.00
49184;DHT22;35021;49.214;12.270;2022-08-01T03:49:31;22.30;57.80
49184;DHT22;35021;49.214;12.270;2022-08-01T03:52:02;22.30;58.00
49184;DHT22;35021;49.214;12.270;2022-08-01T03:54:33;22.20;58.00
49184;DHT22;35021;49.214;12.270;2022-08-01T03:57:02;22.20;58.00
49184;DHT22;35021;49.214;12.270;2022-08-01T03:59:30;22.20;58.10
49184;DHT22;35021;49.214;12.270;2022-08-01T04:01:58;22.20;58.20
49184;DHT22;35021;49.214;12.270;2022-08-01T04:04:28;22.20;58.20
49184;DHT22;35021;49.214;12.270;2022-08-01T04:06:55;22.20;58.20
49184;DHT22;35021;49.214;12.270;2022-08-01T04:09:22;22.20;58.30
49184;DHT22;35021;49.214;12.270;2022-08-01T04:11:49;22.20;58.20
49184;DHT22;35021;49.214;12.270;2022-08-01T04:14:15;22.20;58.30
49184;DHT22;35021;49.214;12.270;2022-08-01T04:16:42;22.20;58.30
49184;DHT22;35021;49.214;12.270;2022-08-01T04:19:10;22.20;58.40
49184;DHT22;35021;49.214;12.270;2022-08-01T04:21:37;22.20;58.40
49184;DHT22;35021;49.214;12.270;2022-08-01T04:24:12;22.20;58.50
49184;DHT22;35021;49.214;12.270;2022-08-01T04:26:40;22.20;58.50
49184;DHT22;35021;49.214;12.270;2022-08-01T04:29:09;22.10;58.50
49184;DHT22;35021;49.214;12.270;2022-08-01T04:31:37;22.20;58.60
49184;DHT22;35021;49.214;12.270;2022-08-01T04:34:06;22.10;58.60
49184;DHT22;35021;49.214;12.270;2022-08-01T04:36:35;22.10;58.60
49184;DHT22;35021;49.214;12.270;2022-08-01T04:39:04;22.20;58.70
49184;DHT22;35021;49.214;12.270;2022-08-01T04:41:33;22.20;58.70
49184;DHT22;35021;49.214;12.270;2022-08-01T04:44:00;22.10;58.70
49184;DHT22;35021;49.214;12.270;2022-08-01T04:46:29;22.20;58.80
49184;DHT22;35021;49.214;12.270;2022-08-01T04:48:57;22.20;58.80
49184;DHT22;35021;49.214;12.270;2022-08-01T04:51:24;22.20;59.50
49184;DHT22;35021;49.214;12.270;2022-08-01T04:53:51;22.20;58.80
49184;DHT22;35021;49.214;12.270;2022-08-01T04:56:19;22.20;58.90
49184;DHT22;35021;49.214;12.270;2022-08-01T04:58:47;22.20;58.90
49184;DHT22;35021;49.214;12.270;2022-08-01T05:01:14;22.20;59.00
49184;DHT22;35021;49.214;12.270;2022-08-01T05:03:42;22.10;59.00
49184;DHT22;35021;49.214;12.270;2022-08-01T05:06:09;22.10;59.00
49184;DHT22;35021;49.214;12.270;2022-08-01T05:08:35;22.10;59.10
49184;DHT22;35021;49.214;12.270;2022-08-01T05:11:03;22.10;59.20
49184;DHT22;35021;49.214;12.270;2022-08-01T05:13:30;22.10;59.20
49184;DHT22;35021;49.214;12.270;2022-08-01T05:15:57;22.10;59.20
49184;DHT22;35021;49.214;12.270;2022-08-01T05:18:25;22.20;59.30
49184;DHT22;35021;49.214;12.270;2022-08-01T05:20:54;22.20;59.30
49184;DHT22;35021;49.214;12.270;2022-08-01T05:23:21;22.10;59.30
49184;DHT22;35021;49.214;12.270;2022-08-01T05:26:08;22.20;59.30
49184;DHT22;35021;49.214;12.270;2022-08-01T05:28:35;22.20;59.30
49184;DHT22;35021;49.214;12.270;2022-08-01T05:31:03;22.20;59.20
49184;DHT22;35021;49.214;12.270;2022-08-01T05:33:30;22.20;59.20
49184;DHT22;35021;49.214;12.270;2022-08-01T05:35:56;22.20;59.20
49184;DHT22;35021;49.214;12.270;2022-08-01T05:38:23;22.20;59.20
49184;DHT22;35021;49.214;12.270;2022-08-01T05:40:50;22.20;59.10
49184;DHT22;35021;49.214;12.270;2022-08-01T05:43:17;22.20;59.10
49184;DHT22;35021;49.214;12.270;2022-08-01T05:45:44;22.20;59.00
49184;DHT22;35021;49.214;12.270;2022-08-01T05:48:12;22.20;59.00
49184;DHT22;35021;49.214;12.270;2022-08-01T05:50:40;22.20;59.00
49184;DHT22;35021;49.214;12.270;2022-08-01T05:53:07;22.20;58.90
49184;DHT22;35021;49.214;12.270;2022-08-01T05:55:35;22.20;58.80
49184;DHT22;35021;49.214;12.270;2022-08-01T05:58:02;22.20;58.80
49184;DHT22;35021;49.214;12.270;2022-08-01T06:00:29;22.20;58.80
49184;DHT22;35021;49.214;12.270;2022-08-01T06:02:56;22.30;58.70
49184;DHT22;35021;49.214;12.270;2022-08-01T06:05:23;22.30;58.70
49184;DHT22;35021;49.214;12.270;2022-08-01T06:07:50;22.30;58.70
49184;DHT22;35021;49.214;12.270;2022-08-01T06:10:16;22.30;58.70
49184;DHT22;35021;49.214;12.270;2022-08-01T06:12:43;22.30;58.60
49184;DHT22;35021;49.214;12.270;2022-08-01T06:15:11;22.30;58.60
49184;DHT22;35021;49.214;12.270;2022-08-01T06:17:37;22.30;58.60
49184;DHT22;35021;49.214;12.270;2022-08-01T06:20:05;22.30;58.50
49184;DHT22;35021;49.214;12.270;2022-08-01T06:22:33;22.30;58.60
49184;DHT22;35021;49.214;12.270;2022-08-01T06:25:00;22.30;58.50
49184;DHT22;35021;49.214;12.270;2022-08-01T06:27:27;22.30;58.50
49184;DHT22;35021;49.214;12.270;2022-08-01T06:29:54;22.40;58.60
49184;DHT22;35021;49.214;12.270;2022-08-01T06:32:21;22.40;58.60
49184;DHT22;35021;49.214;12.270;2022-08-01T06:34:52;22.40;58.60
49184;DHT22;35021;49.214;12.270;2022-08-01T06:37:19;22.30;58.60
49184;DHT22;35021;49.214;12.270;2022-08-01T06:39:46;22.30;58.70
49184;DHT22;35021;49.214;12.270;2022-08-01T06:42:13;22.30;58.80
49184;DHT22;35021;49.214;12.270;2022-08-01T06:44:41;22.30;58.90
49184;DHT22;35021;49.214;12.270;2022-08-01T06:47:08;22.30;58.80
49184;DHT22;35021;49.214;12.270;2022-08-01T06:49:35;22.30;58.90
49184;DHT22;35021;49.214;12.270;2022-08-01T06:52:02;22.30;58.90
49184;DHT22;35021;49.214;12.270;2022-08-01T06:54:30;22.30;59.00
49184;DHT22;35021;49.214;12.270;2022-08-01T06:56:57;22.30;59.00
49184;DHT22;35021;49.214;12.270;2022-08-01T06:59:24;22.20;59.10
49184;DHT22;35021;49.214;12.270;2022-08-01T07:01:51;22.20;59.20
49184;DHT22;35021;49.214;12.270;2022-08-01T07:04:18;22.20;59.30
49184;DHT22;35021;49.214;12.270;2022-08-01T07:06:44;22.20;59.30
49184;DHT22;35021;49.214;12.270;2022-08-01T07:09:11;22.20;59.40
49184;DHT22;35021;49.214;12.270;2022-08-01T07:11:40;22.20;59.50
49184;DHT22;35021;49.214;12.270;2022-08-01T07:14:07;22.20;59.50
49184;DHT22;35021;49.214;12.270;2022-08-01T07:16:34;22.20;59.50
49184;DHT22;35021;49.214;12.270;2022-08-01T07:19:01;22.10;59.40
49184;DHT22;35021;49.214;12.270;2022-08-01T07:21:28;22.10;59.40
49184;DHT22;35021;49.214;12.270;2022-08-01T07:24:08;22.20;59.50
49184;DHT22;35021;49.214;12.270;2022-08-01T07:26:41;22.20;59.50
49184;DHT22;35021;49.214;12.270;2022-08-01T07:29:23;22.20;59.50
49184;DHT22;35021;49.214;12.270;2022-08-01T07:31:55;22.20;59.50
49184;DHT22;35021;49.214;12.270;2022-08-01T07:34:23;22.20;59.40
49184;DHT22;35021;49.214;12.270;2022-08-01T07:36:50;22.20;59.50
49184;DHT22;35021;49.214;12.270;2022-08-01T07:39:18;22.20;59.40
49184;DHT22;35021;49.214;12.270;2022-08-01T07:41:45;22.20;59.30
49184;DHT22;35021;49.214;12.270;2022-08-01T07:44:32;22.30;59.50
49184;DHT22;35021;49.214;12.270;2022-08-01T07:46:59;22.30;59.40
49184;DHT22;35021;49.214;12.270;2022-08-01T07:49:26;22.30;59.30
49184;DHT22;35021;49.214;12.270;2022-08-01T07:51:53;22.30;59.30
49184;DHT22;35021;49.214;12.270;2022-08-01T07:54:32;22.30;59.20
49184;DHT22;35021;49.214;12.270;2022-08-01T07:57:01;22.30;59.10
49184;DHT22;35021;49.214;12.270;2022-08-01T07:59:28;22.40;59.20
49184;DHT22;35021;49.214;12.270;2022-08-01T08:01:55;22.40;59.10
49184;DHT22;35021;49.214;12.270;2022-08-01T08:04:22;22.40;59.10
49184;DHT22;35021;49.214;12.270;2022-08-01T08:06:49;22.40;59.20
49184;DHT22;35021;49.214;12.270;2022-08-01T08:09:16;22.40;59.20
49184;DHT22;35021;49.214;12.270;2022-08-01T08:11:44;22.40;59.20
49184;DHT22;35021;49.214;12.270;2022-08-01T08:14:17;22.40;59.30
49184;DHT22;35021;49.214;12.270;2022-08-01T08:16:44;22.40;59.30
49184;DHT22;35021;49.214;12.270;2022-08-01T08:19:12;22.40;59.20
49184;DHT22;35021;49.214;12.270;2022-08-01T08:21:39;22.40;59.20
49184;DHT22;35021;49.214;12.270;2022-08-01T08:24:09;22.40;59.20
49184;DHT22;35021;49.214;12.270;2022-08-01T08:26:55;22.40;59.30
49184;DHT22;35021;49.214;12.270;2022-08-01T08:29:24;22.40;59.20
49184;DHT22;35021;49.214;12.270;2022-08-01T08:31:53;22.40;59.30
49184;DHT22;35021;49.214;12.270;2022-08-01T08:34:23;22.40;59.20
49184;DHT22;35021;49.214;12.270;2022-08-01T08:36:50;22.40;59.30
49184;DHT22;35021;49.214;12.270;2022-08-01T08:39:17;22.40;59.30
49184;DHT22;35021;49.214;12.270;2022-08-01T08:41:46;22.40;59.10
49184;DHT22;35021;49.214;12.270;2022-08-01T08:44:16;22.50;59.10
49184;DHT22;35021;49.214;12.270;2022-08-01T08:46:52;22.50;59.00
49184;DHT22;35021;49.214;12.270;2022-08-01T08:49:22;22.60;58.90
49184;DHT22;35021;49.214;12.270;2022-08-01T08:51:50;22.60;58.70
49184;DHT22;35021;49.214;12.270;2022-08-01T08:54:19;22.70;58.40
49184;DHT22;35021;49.214;12.270;2022-08-01T08:56:47;22.80;58.20
49184;DHT22;35021;49.214;12.270;2022-08-01T08:59:15;22.90;57.90
49184;DHT22;35021;49.214;12.270;2022-08-01T09:01:42;23.10;57.70
49184;DHT22;35021;49.214;12.270;2022-08-01T09:04:10;23.20;57.30
49184;DHT22;35021;49.214;12.270;2022-08-01T09:06:38;23.40;57.00
49184;DHT22;35021;49.214;12.270;2022-08-01T09:09:06;23.50;56.60
49184;DHT22;35021;49.214;12.270;2022-08-01T09:11:33;23.70;56.30
49184;DHT22;35021;49.214;12.270;2022-08-01T09:14:05;23.80;55.80
49184;DHT22;35021;49.214;12.270;2022-08-01T09:16:33;23.90;55.50
49184;DHT22;35021;49.214;12.270;2022-08-01T09:19:13;24.10;55.00
49184;DHT22;35021;49.214;12.270;2022-08-01T09:22:02;24.20;54.60
49184;DHT22;35021;49.214;12.270;2022-08-01T09:24:31;24.30;54.30
49184;DHT22;35021;49.214;12.270;2022-08-01T09:26:58;24.40;54.20
49184;DHT22;35021;49.214;12.270;2022-08-01T09:29:30;24.50;54.10
49184;DHT22;35021;49.214;12.270;2022-08-01T09:32:07;24.60;54.00
49184;DHT22;35021;49.214;12.270;2022-08-01T09:34:42;24.60;53.90
49184;DHT22;35021;49.214;12.270;2022-08-01T09:37:09;24.60;53.80
49184;DHT22;35021;49.214;12.270;2022-08-01T09:39:38;24.60;53.90
49184;DHT22;35021;49.214;12.270;2022-08-01T09:42:24;24.60;54.00
49184;DHT22;35021;49.214;12.270;2022-08-01T09:44:55;24.60;54.00
49184;DHT22;35021;49.214;12.270;2022-08-01T09:47:37;24.60;54.00
49184;DHT22;35021;49.214;12.270;2022-08-01T09:50:05;24.60;54.20
49184;DHT22;35021;49.214;12.270;2022-08-01T09:52:38;24.50;54.30
49184;DHT22;35021;49.214;12.270;2022-08-01T09:55:07;24.50;54.40
49184;DHT22;35021;49.214;12.270;2022-08-01T09:57:34;24.50;54.60
49184;DHT22;35021;49.214;12.270;2022-08-01T10:00:03;24.40;54.50
49184;DHT22;35021;49.214;12.270;2022-08-01T10:02:38;24.40;54.70
49184;DHT22;35021;49.214;12.270;2022-08-01T10:05:08;24.40;54.80
49184;DHT22;35021;49.214;12.270;2022-08-01T10:07:54;24.40;54.80
49184;DHT22;35021;49.214;12.270;2022-08-01T10:10:24;24.40;54.90
49184;DHT22;35021;49.214;12.270;2022-08-01T10:12:56;24.30;54.90
49184;DHT22;35021;49.214;12.270;2022-08-01T10:15:25;24.30;55.00
49184;DHT22;35021;49.214;12.270;2022-08-01T10:18:06;24.20;54.90
49184;DHT22;35021;49.214;12.270;2022-08-01T10:20:47;24.20;55.00
49184;DHT22;35021;49.214;12.270;2022-08-01T10:23:15;24.20;55.00
49184;DHT22;35021;49.214;12.270;2022-08-01T10:25:43;24.20;55.10
49184;DHT22;35021;49.214;12.270;2022-08-01T10:28:17;24.20;55.20
49184;DHT22;35021;49.214;12.270;2022-08-01T10:30:49;24.20;55.20
49184;DHT22;35021;49.214;12.270;2022-08-01T10:33:21;24.20;55.30
49184;DHT22;35021;49.214;12.270;2022-08-01T10:36:09;24.20;55.30
49184;DHT22;35021;49.214;12.270;2022-08-01T10:38:37;24.20;55.20
49184;DHT22;35021;49.214;12.270;2022-08-01T10:41:05;24.20;55.10
49184;DHT22;35021;49.214;12.270;2022-08-01T10:43:35;24.20;55.10
49184;DHT22;35021;49.214;12.270;2022-08-01T10:46:04;24.20;55.00
49184;DHT22;35021;49.214;12.270;2022-08-01T10:51:18;24.20;54.90
49184;DHT22;35021;49.214;12.270;2022-08-01T10:53:52;24.20;54.90
49184;DHT22;35021;49.214;12.270;2022-08-01T10:56:22;24.20;54.90
49184;DHT22;35021;49.214;12.270;2022-08-01T10:59:01;24.20;54.90
49184;DHT22;35021;49.214;12.270;2022-08-01T11:01:37;24.20;54.90
49184;DHT22;35021;49.214;12.270;2022-08-01T11:04:13;24.20;54.90
49184;DHT22;35021;49.214;12.270;2022-08-01T11:06:53;24.20;54.90
49184;DHT22;35021;49.214;12.270;2022-08-01T11:09:27;24.20;54.90
49184;DHT22;35021;49.214;12.270;2022-08-01T11:12:07;24.20;54.80
49184;DHT22;35021;49.214;12.270;2022-08-01T11:28:25;24.20;54.80
49184;DHT22;35021;49.214;12.270;2022-08-01T11:38:48;24.20;54.80
49184;DHT22;35021;49.214;12.270;2022-08-01T11:41:23;24.20;54.70
49184;DHT22;35021;49.214;12.270;2022-08-01T11:44:14;24.20;54.70
49184;DHT22;35021;49.214;12.270;2022-08-01T11:54:43;24.20;54.60
49184;DHT22;35021;49.214;12.270;2022-08-01T11:57:21;24.30;54.70
49184;DHT22;35021;49.214;12.270;2022-08-01T11:59:54;24.30;54.70
49184;DHT22;35021;49.214;12.270;2022-08-01T12:02:32;24.30;54.70
49184;DHT22;35021;49.214;12.270;2022-08-01T12:05:02;24.20;54.60
49184;DHT22;35021;49.214;12.270;2022-08-01T12:07:32;24.30;54.70
49184;DHT22;35021;49.214;12.270;2022-08-01T12:10:05;24.20;54.60
49184;DHT22;35021;49.214;12.270;2022-08-01T12:12:34;24.30;54.70
49184;DHT22;35021;49.214;12.270;2022-08-01T12:15:10;24.20;54.60
49184;DHT22;35021;49.214;12.270;2022-08-01T12:17:43;24.30;54.70
49184;DHT22;35021;49.214;12.270;2022-08-01T12:20:24;24.30;54.70
49184;DHT22;35021;49.214;12.270;2022-08-01T12:22:57;24.30;54.60
49184;DHT22;35021;49.214;12.270;2022-08-01T12:25:24;24.30;54.60
49184;DHT22;35021;49.214;12.270;2022-08-01T12:27:51;24.30;54.50
49184;DHT22;35021;49.214;12.270;2022-08-01T12:30:23;24.40;54.60
49184;DHT22;35021;49.214;12.270;2022-08-01T12:32:53;24.30;54.50
49184;DHT22;35021;49.214;12.270;2022-08-01T12:35:25;24.40;54.50
49184;DHT22;35021;49.214;12.270;2022-08-01T12:38:04;24.40;54.50
49184;DHT22;35021;49.214;12.270;2022-08-01T12:40:36;24.40;54.50
49184;DHT22;35021;49.214;12.270;2022-08-01T12:43:16;24.40;54.40
49184;DHT22;35021;49.214;12.270;2022-08-01T12:45:58;24.40;54.30
49184;DHT22;35021;49.214;12.270;2022-08-01T12:48:26;24.40;54.30
49184;DHT22;35021;49.214;12.270;2022-08-01T12:50:53;24.40;54.30
49184;DHT22;35021;49.214;12.270;2022-08-01T12:53:24;24.40;54.30
49184;DHT22;35021;49.214;12.270;2022-08-01T12:55:54;24.50;54.20
49184;DHT22;35021;49.214;12.270;2022-08-01T12:58:31;24.50;54.30
49184;DHT22;35021;49.214;12.270;2022-08-01T13:01:11;24.50;54.20
49184;DHT22;35021;49.214;12.270;2022-08-01T13:03:39;24.50;54.10
49184;DHT22;35021;49.214;12.270;2022-08-01T13:06:14;24.50;54.10
49184;DHT22;35021;49.214;12.270;2022-08-01T13:08:43;24.50;54.00
49184;DHT22;35021;49.214;12.270;2022-08-01T13:11:12;24.50;53.90
49184;DHT22;35021;49.214;12.270;2022-08-01T13:13:51;24.50;54.00
49184;DHT22;35021;49.214;12.270;2022-08-01T13:16:21;24.50;54.00
49184;DHT22;35021;49.214;12.270;2022-08-01T13:19:04;24.50;54.10
49184;DHT22;35021;49.214;12.270;2022-08-01T13:21:31;24.40;54.20
49184;DHT22;35021;49.214;12.270;2022-08-01T13:24:24;24.40;54.30
49184;DHT22;35021;49.214;12.270;2022-08-01T13:26:59;24.40;54.40
49184;DHT22;35021;49.214;12.270;2022-08-01T13:29:39;24.30;54.40
49184;DHT22;35021;49.214;12.270;2022-08-01T13:32:16;24.30;54.50
49184;DHT22;35021;49.214;12.270;2022-08-01T13:35:07;24.30;54.70
49184;DHT22;35021;49.214;12.270;2022-08-01T13:37:36;24.30;54.80
49184;DHT22;35021;49.214;12.270;2022-08-01T13:40:05;24.20;54.80
49184;DHT22;35021;49.214;12.270;2022-08-01T13:42:32;24.20;54.80
49184;DHT22;35021;49.214;12.270;2022-08-01T13:44:59;24.20;54.80
49184;DHT22;35021;49.214;12.270;2022-08-01T13:47:29;24.20;54.80
49184;DHT22;35021;49.214;12.270;2022-08-01T13:49:58;24.20;54.80
49184;DHT22;35021;49.214;12.270;2022-08-01T13:52:29;24.30;54.80
49184;DHT22;35021;49.214;12.270;2022-08-01T13:54:55;24.30;54.70
49184;DHT22;35021;49.214;12.270;2022-08-01T13:57:22;24.30;54.70
49184;DHT22;35021;49.214;12.270;2022-08-01T13:59:49;24.40;54.60
49184;DHT22;35021;49.214;12.270;2022-08-01T14:02:19;24.40;54.50
49184;DHT22;35021;49.214;12.270;2022-08-01T14:04:46;24.40;54.50
49184;DHT22;35021;49.214;12.270;2022-08-01T14:07:13;24.40;54.40
49184;DHT22;35021;49.214;12.270;2022-08-01T14:09:41;24.40;54.30
49184;DHT22;35021;49.214;12.270;2022-08-01T14:12:23;24.40;54.30
49184;DHT22;35021;49.214;12.270;2022-08-01T14:14:50;24.40;54.30
49184;DHT22;35021;49.214;12.270;2022-08-01T14:17:17;24.40;54.30
49184;DHT22;35021;49.214;12.270;2022-08-01T14:19:44;24.50;54.30
49184;DHT22;35021;49.214;12.270;2022-08-01T14:22:12;24.40;54.10
49184;DHT22;35021;49.214;12.270;2022-08-01T14:24:38;24.40;54.10
49184;DHT22;35021;49.214;12.270;2022-08-01T14:27:07;24.40;54.00
49184;DHT22;35021;49.214;12.270;2022-08-01T14:29:34;24.40;54.00
49184;DHT22;35021;49.214;12.270;2022-08-01T14:32:20;24.40;54.00
49184;DHT22;35021;49.214;12.270;2022-08-01T14:34:51;24.40;54.00
49184;DHT22;35021;49.214;12.270;2022-08-01T14:37:18;24.40;54.00
49184;DHT22;35021;49.214;12.270;2022-08-01T14:39:46;24.40;53.90
49184;DHT22;35021;49.214;12.270;2022-08-01T14:42:20;24.40;53.90
49184;DHT22;35021;49.214;12.270;2022-08-01T14:44:47;24.40;53.80
49184;DHT22;35021;49.214;12.270;2022-08-01T14:47:16;24.50;53.70
49184;DHT22;35021;49.214;12.270;2022-08-01T14:49:48;24.40;53.60
49184;DHT22;35021;49.214;12.270;2022-08-01T14:52:16;24.50;53.50
49184;DHT22;35021;49.214;12.270;2022-08-01T14:54:43;24.50;53.30
49184;DHT22;35021;49.214;12.270;2022-08-01T14:57:09;24.50;53.00
49184;DHT22;35021;49.214;12.270;2022-08-01T14:59:39;24.60;52.90
49184;DHT22;35021;49.214;12.270;2022-08-01T15:02:06;24.60;52.80
49184;DHT22;35021;49.214;12.270;2022-08-01T15:04:34;24.60;52.80
49184;DHT22;35021;49.214;12.270;2022-08-01T15:07:00;24.50;52.80
49184;DHT22;35021;49.214;12.270;2022-08-01T15:09:27;24.60;52.90
49184;DHT22;35021;49.214;12.270;2022-08-01T15:11:54;24.60;52.90
49184;DHT22;35021;49.214;12.270;2022-08-01T15:14:21;24.60;52.90
49184;DHT22;35021;49.214;12.270;2022-08-01T15:17:06;24.50;52.80
49184;DHT22;35021;49.214;12.270;2022-08-01T15:19:34;24.50;52.90
49184;DHT22;35021;49.214;12.270;2022-08-01T15:22:07;24.50;52.90
49184;DHT22;35021;49.214;12.270;2022-08-01T15:24:35;24.50;53.00
49184;DHT22;35021;49.214;12.270;2022-08-01T15:27:02;24.50;53.00
49184;DHT22;35021;49.214;12.270;2022-08-01T15:29:29;24.50;53.00
49184;DHT22;35021;49.214;12.270;2022-08-01T15:31:56;24.50;53.00
49184;DHT22;35021;49.214;12.270;2022-08-01T15:34:23;24.50;53.10
49184;DHT22;35021;49.214;12.270;2022-08-01T15:36:50;24.50;53.00
49184;DHT22;35021;49.214;12.270;2022-08-01T15:39:17;24.50;53.10
49184;DHT22;35021;49.214;12.270;2022-08-01T15:41:44;24.50;53.00
49184;DHT22;35021;49.214;12.270;2022-08-01T15:44:11;24.50;53.10
49184;DHT22;35021;49.214;12.270;2022-08-01T15:46:39;24.50;53.00
49184;DHT22;35021;49.214;12.270;2022-08-01T15:49:06;24.50;53.00
49184;DHT22;35021;49.214;12.270;2022-08-01T15:51:33;24.50;52.90
49184;DHT22;35021;49.214;12.270;2022-08-01T15:54:00;24.40;52.80
49184;DHT22;35021;49.214;12.270;2022-08-01T15:56:29;24.50;52.90
49184;DHT22;35021;49.214;12.270;2022-08-01T15:58:56;24.50;52.90
49184;DHT22;35021;49.214;12.270;2022-08-01T16:01:23;24.40;53.00
49184;DHT22;35021;49.214;12.270;2022-08-01T16:03:53;24.40;53.00
49184;DHT22;35021;49.214;12.270;2022-08-01T16:06:20;24.40;53.10
49184;DHT22;35021;49.214;12.270;2022-08-01T16:08:47;24.40;52.90
49184;DHT22;35021;49.214;12.270;2022-08-01T16:11:13;24.40;53.00
49184;DHT22;35021;49.214;12.270;2022-08-01T16:13:40;24.40;53.10
49184;DHT22;35021;49.214;12.270;2022-08-01T16:16:07;24.40;53.20
49184;DHT22;35021;49.214;12.270;2022-08-01T16:18:35;24.40;53.20
49184;DHT22;35021;49.214;12.270;2022-08-01T16:21:02;24.40;53.20